Time;durP1;ratioP1;P1;durP2;ratioP2;P2;SDS_P1;SDS_P2;PMS_P1;PMS_P2;Temp;Humidity;BMP_temperature;BMP_pressure;BME280_temperature;BME280_humidity;BME280_pressure;Samples;Min_cycle;Max_cycle;Signal;HPM_P1;HPM_P2
2022/02/25 00:02:12;;;;;;;0.82;0.73;;;;;;;;;;5072254;28;20028;-49
2022/02/25 00:04:38;;;;;;;1.48;0.85;;;;;;;;;;5072049;28;20085;-51
2022/02/25 00:07:04;;;;;;;1.42;0.77;;;;;;;;;;5066239;28;20051;-51
2022/02/25 00:09:30;;;;;;;1.05;0.80;;;;;;;;;;5067833;28;20020;-54
2022/02/25 00:11:56;;;;;;;2.40;0.73;;;;;;;;;;5072287;28;20397;-50
2022/02/25 00:14:22;;;;;;;2.97;0.93;;;;;;;;;;5069714;28;20108;-49
2022/02/25 00:16:51;;;;;;;1.00;0.60;;;;;;;;;;5069080;28;20103;-50
2022/02/25 00:19:18;;;;;;;2.45;0.63;;;;;;;;;;5072381;28;20025;-50
2022/02/25 00:21:44;;;;;;;1.15;0.68;;;;;;;;;;5071661;28;20514;-50
2022/02/25 00:24:10;;;;;;;2.05;0.80;;;;;;;;;;5060279;28;20108;-53
2022/02/25 00:26:36;;;;;;;1.25;0.70;;;;;;;;;;5071366;28;20366;-48
2022/02/25 00:29:03;;;;;;;1.08;0.60;;;;;;;;;;5072084;28;20063;-48
2022/02/25 00:31:29;;;;;;;2.47;0.70;;;;;;;;;;5071717;28;20029;-49
2022/02/25 00:33:55;;;;;;;1.20;0.60;;;;;;;;;;5071584;28;20116;-49
2022/02/25 00:36:21;;;;;;;4.07;0.73;;;;;;;;;;5068367;28;20376;-49
2022/02/25 00:38:47;;;;;;;1.80;0.75;;;;;;;;;;5057026;28;20021;-49
2022/02/25 00:41:13;;;;;;;2.35;1.10;;;;;;;;;;5069306;28;20431;-49
2022/02/25 00:43:39;;;;;;;3.22;1.00;;;;;;;;;;5068063;28;20025;-49
2022/02/25 00:46:05;;;;;;;3.08;1.50;;;;;;;;;;5070609;28;20029;-49
2022/02/25 00:48:31;;;;;;;1.70;0.90;;;;;;;;;;5058872;28;20029;-52
2022/02/25 00:50:57;;;;;;;1.85;0.90;;;;;;;;;;5070306;28;20059;-51
2022/02/25 00:53:23;;;;;;;2.15;0.95;;;;;;;;;;5063150;28;20441;-54
2022/02/25 00:55:49;;;;;;;2.55;1.17;;;;;;;;;;5067188;28;20093;-50
2022/02/25 00:58:15;;;;;;;1.20;1.00;;;;;;;;;;5061531;28;20128;-54
2022/02/25 01:00:41;;;;;;;0.82;0.70;;;;;;;;;;5068634;28;20104;-52
2022/02/25 01:03:07;;;;;;;1.63;0.70;;;;;;;;;;5066853;28;20347;-48
2022/02/25 01:05:34;;;;;;;7.75;1.40;;;;;;;;;;5072004;28;20039;-49
2022/02/25 01:08:06;;;;;;;0.98;0.60;;;;;;;;;;5067225;28;20024;-49
2022/02/25 01:10:33;;;;;;;1.95;1.00;;;;;;;;;;5069480;28;20118;-50
2022/02/25 01:12:59;;;;;;;1.15;0.80;;;;;;;;;;5064042;28;20052;-51
2022/02/25 01:15:25;;;;;;;4.63;1.10;;;;;;;;;;5069257;28;20075;-49
2022/02/25 01:17:51;;;;;;;4.03;1.38;;;;;;;;;;5067635;28;20108;-48
2022/02/25 01:20:17;;;;;;;1.45;0.95;;;;;;;;;;5071208;28;20107;-49
2022/02/25 01:22:44;;;;;;;2.95;0.95;;;;;;;;;;5064552;28;20330;-49
2022/02/25 01:25:10;;;;;;;1.80;0.90;;;;;;;;;;5071977;28;20565;-48
2022/02/25 01:27:36;;;;;;;2.70;1.00;;;;;;;;;;5054224;28;20033;-50
2022/02/25 01:30:04;;;;;;;1.42;0.88;;;;;;;;;;5058021;28;20029;-50
2022/02/25 01:32:29;;;;;;;3.35;1.00;;;;;;;;;;5068880;28;20375;-48
2022/02/25 01:34:56;;;;;;;2.47;0.90;;;;;;;;;;5069828;28;20029;-49
2022/02/25 01:37:22;;;;;;;2.15;1.08;;;;;;;;;;5059364;28;20025;-48
2022/02/25 01:39:48;;;;;;;1.02;0.80;;;;;;;;;;5071484;28;20040;-50
2022/02/25 01:42:14;;;;;;;3.20;0.88;;;;;;;;;;5060600;28;20495;-50
2022/02/25 01:44:40;;;;;;;1.02;0.88;;;;;;;;;;5067299;28;20040;-50
2022/02/25 01:47:07;;;;;;;3.13;0.73;;;;;;;;;;5064523;28;20035;-49
2022/02/25 01:49:33;;;;;;;3.63;1.48;;;;;;;;;;5067874;28;20112;-49
2022/02/25 01:52:01;;;;;;;1.58;1.00;;;;;;;;;;5063944;28;20032;-48
2022/02/25 01:54:27;;;;;;;2.20;1.10;;;;;;;;;;5071358;28;20032;-49
2022/02/25 01:56:55;;;;;;;2.25;1.00;;;;;;;;;;5063587;28;20094;-50
2022/02/25 01:59:21;;;;;;;4.38;1.73;;;;;;;;;;5068704;28;20106;-50
2022/02/25 02:01:47;;;;;;;1.05;0.80;;;;;;;;;;5071632;28;20036;-48
2022/02/25 02:04:13;;;;;;;3.28;1.23;;;;;;;;;;5071389;28;20032;-49
2022/02/25 02:06:39;;;;;;;4.10;1.20;;;;;;;;;;5066431;28;20031;-48
2022/02/25 02:09:05;;;;;;;4.20;1.10;;;;;;;;;;5062662;28;20469;-49
2022/02/25 02:11:36;;;;;;;4.00;1.10;;;;;;;;;;5062434;28;20166;-50
2022/02/25 02:14:04;;;;;;;3.15;1.70;;;;;;;;;;5072778;28;20024;-51
2022/02/25 02:16:30;;;;;;;2.40;1.48;;;;;;;;;;5069235;28;21446;-52
2022/02/25 02:18:56;;;;;;;1.98;0.95;;;;;;;;;;5064519;28;20495;-50
2022/02/25 02:21:26;;;;;;;2.30;0.90;;;;;;;;;;5059719;28;20037;-48
2022/02/25 02:23:53;;;;;;;2.72;1.30;;;;;;;;;;5072935;28;20024;-48
2022/02/25 02:26:19;;;;;;;4.93;1.42;;;;;;;;;;5066047;28;20082;-48
2022/02/25 02:28:45;;;;;;;2.72;0.93;;;;;;;;;;5070991;28;20437;-48
2022/02/25 02:31:11;;;;;;;2.55;1.10;;;;;;;;;;5070306;28;20111;-49
2022/02/25 02:33:37;;;;;;;6.28;1.05;;;;;;;;;;5062756;28;20369;-48
2022/02/25 02:36:04;;;;;;;4.57;0.93;;;;;;;;;;5070095;28;20027;-48
2022/02/25 02:38:30;;;;;;;3.15;1.10;;;;;;;;;;5064488;28;20068;-48
2022/02/25 02:40:56;;;;;;;4.78;1.50;;;;;;;;;;5069739;28;20032;-49
2022/02/25 02:43:22;;;;;;;4.43;1.77;;;;;;;;;;5073484;28;20109;-48
2022/02/25 02:45:48;;;;;;;3.03;1.30;;;;;;;;;;5071043;28;20472;-52
2022/02/25 02:48:14;;;;;;;9.38;1.33;;;;;;;;;;5068975;28;20028;-51
2022/02/25 02:50:41;;;;;;;7.72;1.50;;;;;;;;;;5066216;28;20038;-50
2022/02/25 02:53:07;;;;;;;3.83;1.23;;;;;;;;;;5055072;28;20025;-48
2022/02/25 02:55:33;;;;;;;5.55;1.48;;;;;;;;;;5060886;28;20052;-48
2022/02/25 02:57:59;;;;;;;9.60;1.40;;;;;;;;;;5068537;28;20068;-52
2022/02/25 03:00:25;;;;;;;4.88;1.20;;;;;;;;;;5067419;28;20525;-50
2022/02/25 03:02:51;;;;;;;3.28;1.00;;;;;;;;;;5072776;28;20043;-53
2022/02/25 03:05:18;;;;;;;5.88;1.88;;;;;;;;;;5067889;28;20453;-48
2022/02/25 03:07:46;;;;;;;3.78;1.67;;;;;;;;;;5073500;28;20798;-48
2022/02/25 03:10:12;;;;;;;6.90;1.55;;;;;;;;;;5071400;28;20086;-48
2022/02/25 03:12:38;;;;;;;4.68;1.30;;;;;;;;;;5068137;28;20028;-48
2022/02/25 03:15:05;;;;;;;3.42;1.50;;;;;;;;;;5069897;28;20047;-49
2022/02/25 03:17:32;;;;;;;4.70;1.55;;;;;;;;;;5073386;28;20032;-48
2022/02/25 03:19:58;;;;;;;3.53;1.42;;;;;;;;;;5060004;28;20028;-48
2022/02/25 03:22:25;;;;;;;7.90;1.60;;;;;;;;;;5071172;28;20024;-48
2022/02/25 03:24:51;;;;;;;8.23;1.65;;;;;;;;;;5071965;28;20032;-48
2022/02/25 03:27:17;;;;;;;3.95;1.42;;;;;;;;;;5072340;28;20032;-51
2022/02/25 03:29:43;;;;;;;4.28;1.95;;;;;;;;;;5072842;28;20086;-48
2022/02/25 03:32:09;;;;;;;3.95;1.25;;;;;;;;;;5070875;28;20111;-49
2022/02/25 03:34:35;;;;;;;9.25;1.55;;;;;;;;;;5057879;28;20036;-50
2022/02/25 03:37:01;;;;;;;8.98;2.03;;;;;;;;;;5072446;28;20028;-48
2022/02/25 03:39:27;;;;;;;3.42;1.58;;;;;;;;;;5061005;28;20031;-50
2022/02/25 03:41:53;;;;;;;1.77;1.38;;;;;;;;;;5069329;28;20033;-53
2022/02/25 03:44:19;;;;;;;3.20;1.48;;;;;;;;;;5070364;28;20115;-48
2022/02/25 03:46:47;;;;;;;3.75;1.33;;;;;;;;;;5072864;28;20040;-49
2022/02/25 03:49:13;;;;;;;5.28;1.50;;;;;;;;;;5066849;28;20024;-48
2022/02/25 03:51:39;;;;;;;7.38;2.03;;;;;;;;;;5067844;28;20039;-48
2022/02/25 03:54:05;;;;;;;5.00;1.92;;;;;;;;;;5059837;28;20515;-48
2022/02/25 03:56:31;;;;;;;6.43;1.90;;;;;;;;;;5057937;28;20163;-49
2022/02/25 03:58:57;;;;;;;5.65;1.75;;;;;;;;;;5069084;28;20047;-48
2022/02/25 04:01:24;;;;;;;8.15;2.35;;;;;;;;;;5062297;28;20028;-48
2022/02/25 04:03:50;;;;;;;3.58;1.85;;;;;;;;;;5068210;28;20028;-48
2022/02/25 04:06:16;;;;;;;3.22;1.38;;;;;;;;;;5065792;28;20027;-49
2022/02/25 04:08:43;;;;;;;5.97;2.22;;;;;;;;;;5070747;28;20070;-48
2022/02/25 04:11:09;;;;;;;4.32;1.70;;;;;;;;;;5068839;28;20033;-49
2022/02/25 04:13:35;;;;;;;8.88;1.83;;;;;;;;;;5065842;28;20112;-48
2022/02/25 04:16:01;;;;;;;4.38;2.17;;;;;;;;;;5064478;28;20100;-49
2022/02/25 04:18:27;;;;;;;5.78;1.70;;;;;;;;;;5072217;28;20028;-52
2022/02/25 04:20:53;;;;;;;5.43;1.60;;;;;;;;;;5071520;28;20103;-51
2022/02/25 04:23:19;;;;;;;4.95;2.10;;;;;;;;;;5056314;28;20039;-49
2022/02/25 04:25:45;;;;;;;5.75;1.85;;;;;;;;;;5071822;28;20423;-51
2022/02/25 04:28:11;;;;;;;4.90;1.60;;;;;;;;;;5072440;28;20147;-50
2022/02/25 04:30:37;;;;;;;6.57;1.60;;;;;;;;;;5063341;28;20090;-49
2022/02/25 04:33:03;;;;;;;9.85;2.75;;;;;;;;;;5070526;28;20033;-50
2022/02/25 04:35:29;;;;;;;5.63;1.70;;;;;;;;;;5069490;28;20021;-50
2022/02/25 04:37:55;;;;;;;6.50;1.70;;;;;;;;;;5066046;28;20472;-53
2022/02/25 04:40:21;;;;;;;5.50;1.70;;;;;;;;;;5071652;28;20029;-49
2022/02/25 04:42:47;;;;;;;6.07;1.92;;;;;;;;;;5069921;28;20024;-49
2022/02/25 04:45:13;;;;;;;4.25;2.22;;;;;;;;;;5068820;28;20060;-48
2022/02/25 04:47:40;;;;;;;10.35;1.90;;;;;;;;;;5067521;28;20582;-48
2022/02/25 04:50:06;;;;;;;6.20;1.83;;;;;;;;;;5058478;28;20461;-49
2022/02/25 04:52:32;;;;;;;6.07;1.88;;;;;;;;;;5059496;28;20067;-49
2022/02/25 04:54:58;;;;;;;7.00;1.60;;;;;;;;;;5061506;28;20101;-49
2022/02/25 04:57:24;;;;;;;4.72;1.75;;;;;;;;;;5069674;28;20031;-49
2022/02/25 04:59:50;;;;;;;5.57;1.80;;;;;;;;;;5070027;28;20871;-48
2022/02/25 05:02:16;;;;;;;9.00;2.03;;;;;;;;;;5061687;28;20032;-48
2022/02/25 05:04:42;;;;;;;5.13;2.13;;;;;;;;;;5071684;28;20488;-52
2022/02/25 05:07:08;;;;;;;5.28;1.55;;;;;;;;;;5055963;28;20434;-53
2022/02/25 05:09:35;;;;;;;9.32;2.05;;;;;;;;;;5065569;28;20060;-50
2022/02/25 05:12:01;;;;;;;11.98;1.80;;;;;;;;;;5060121;28;20037;-49
2022/02/25 05:22:40;;;;;;;4.50;2.17;;;;;;;;;;5058700;28;20126;-54
2022/02/25 05:25:06;;;;;;;5.13;1.50;;;;;;;;;;5069435;28;20480;-54
2022/02/25 05:27:32;;;;;;;7.07;1.88;;;;;;;;;;5064707;28;20043;-49
2022/02/25 05:29:58;;;;;;;6.50;1.58;;;;;;;;;;5061277;28;20635;-48
2022/02/25 05:32:24;;;;;;;4.00;1.60;;;;;;;;;;5062223;28;20033;-49
2022/02/25 05:34:50;;;;;;;4.70;2.22;;;;;;;;;;5068330;28;20148;-51
2022/02/25 05:37:16;;;;;;;3.05;2.10;;;;;;;;;;5065032;28;20029;-48
2022/02/25 05:39:42;;;;;;;5.82;1.95;;;;;;;;;;5064764;28;20020;-48
2022/02/25 05:42:08;;;;;;;5.15;1.70;;;;;;;;;;5065059;28;20029;-52
2022/02/25 05:44:34;;;;;;;12.35;2.03;;;;;;;;;;5058927;28;20045;-48
2022/02/25 05:47:00;;;;;;;8.68;1.77;;;;;;;;;;5062476;28;20064;-52
2022/02/25 05:49:27;;;;;;;5.93;1.90;;;;;;;;;;5069387;28;20465;-48
2022/02/25 05:51:53;;;;;;;5.88;1.92;;;;;;;;;;5062244;28;20473;-53
2022/02/25 05:54:19;;;;;;;5.18;1.80;;;;;;;;;;5066394;28;20103;-49
2022/02/25 05:56:44;;;;;;;7.40;2.25;;;;;;;;;;5072047;28;20036;-48
2022/02/25 05:59:11;;;;;;;6.07;2.20;;;;;;;;;;5068793;28;20017;-50
2022/02/25 06:01:37;;;;;;;3.88;1.60;;;;;;;;;;5064717;28;20032;-48
2022/02/25 06:04:03;;;;;;;5.57;2.20;;;;;;;;;;5064885;28;20025;-48
2022/02/25 06:06:29;;;;;;;4.38;1.98;;;;;;;;;;5071572;28;20107;-49
2022/02/25 06:08:55;;;;;;;4.38;1.85;;;;;;;;;;5056544;28;20029;-53
2022/02/25 06:11:21;;;;;;;4.50;1.80;;;;;;;;;;5065258;28;20032;-50
2022/02/25 06:13:46;;;;;;;5.30;2.05;;;;;;;;;;5057867;28;20021;-51
2022/02/25 06:16:12;;;;;;;7.10;1.65;;;;;;;;;;5068310;28;20031;-51
2022/02/25 06:18:41;;;;;;;5.65;2.22;;;;;;;;;;5072923;28;20107;-52
2022/02/25 06:21:08;;;;;;;6.85;2.22;;;;;;;;;;5058065;28;20082;-50
2022/02/25 06:23:34;;;;;;;3.97;2.05;;;;;;;;;;5064861;28;20048;-49
2022/02/25 06:26:00;;;;;;;6.80;2.65;;;;;;;;;;5073444;28;20028;-50
2022/02/25 06:28:26;;;;;;;4.82;1.60;;;;;;;;;;5064723;28;20036;-50
2022/02/25 06:30:53;;;;;;;4.55;1.75;;;;;;;;;;5066765;28;20032;-51
2022/02/25 06:33:19;;;;;;;4.45;2.03;;;;;;;;;;5065932;28;20051;-49
2022/02/25 06:35:45;;;;;;;10.40;2.10;;;;;;;;;;5058910;28;20460;-49
2022/02/25 06:38:11;;;;;;;5.40;2.45;;;;;;;;;;5062032;28;20048;-49
2022/02/25 06:40:37;;;;;;;9.00;2.00;;;;;;;;;;5060640;28;20024;-51
2022/02/25 06:43:03;;;;;;;6.10;2.10;;;;;;;;;;5062256;28;20423;-48
2022/02/25 06:45:29;;;;;;;11.13;2.47;;;;;;;;;;5069909;28;20043;-48
2022/02/25 06:47:55;;;;;;;4.60;1.60;;;;;;;;;;5067750;28;20036;-49
2022/02/25 06:50:21;;;;;;;4.70;1.67;;;;;;;;;;5059585;28;20032;-48
2022/02/25 06:52:47;;;;;;;4.22;2.13;;;;;;;;;;5071587;28;20074;-48
2022/02/25 06:55:14;;;;;;;5.60;2.05;;;;;;;;;;5068056;28;20048;-50
2022/02/25 06:57:44;;;;;;;6.50;2.15;;;;;;;;;;5067863;28;20024;-50
2022/02/25 07:00:17;;;;;;;4.65;1.73;;;;;;;;;;5061931;28;20127;-51
2022/02/25 07:02:43;;;;;;;3.53;1.90;;;;;;;;;;5057164;28;20033;-53
2022/02/25 07:05:09;;;;;;;6.90;1.98;;;;;;;;;;5060799;28;20029;-52
2022/02/25 07:07:35;;;;;;;4.25;1.98;;;;;;;;;;5068013;28;20030;-50
2022/02/25 07:10:01;;;;;;;5.00;2.10;;;;;;;;;;5062105;28;20032;-49
2022/02/25 07:12:27;;;;;;;4.28;1.98;;;;;;;;;;5067311;28;20051;-48
2022/02/25 07:14:53;;;;;;;10.88;2.50;;;;;;;;;;5062602;28;20013;-48
2022/02/25 07:17:19;;;;;;;6.57;2.03;;;;;;;;;;5059767;28;20053;-49
2022/02/25 07:19:45;;;;;;;5.35;2.15;;;;;;;;;;5059820;28;20082;-51
2022/02/25 07:22:11;;;;;;;7.70;2.00;;;;;;;;;;5064499;28;20467;-50
2022/02/25 07:24:37;;;;;;;6.93;1.88;;;;;;;;;;5066624;28;20054;-52
2022/02/25 07:27:04;;;;;;;3.38;2.17;;;;;;;;;;5068099;28;20032;-49
2022/02/25 07:29:29;;;;;;;6.05;2.28;;;;;;;;;;5058643;28;20052;-53
2022/02/25 07:31:55;;;;;;;6.55;2.22;;;;;;;;;;5063138;28;20040;-50
2022/02/25 07:34:22;;;;;;;4.57;1.70;;;;;;;;;;5071289;28;20039;-48
2022/02/25 07:36:48;;;;;;;4.20;1.60;;;;;;;;;;5068909;28;20075;-49
2022/02/25 07:39:14;;;;;;;4.15;1.67;;;;;;;;;;5064562;28;20020;-48
2022/02/25 07:41:41;;;;;;;5.03;1.83;;;;;;;;;;5063963;28;20025;-49
2022/02/25 07:44:07;;;;;;;2.33;1.20;;;;;;;;;;5061645;28;20416;-49
2022/02/25 07:46:33;;;;;;;6.32;1.67;;;;;;;;;;5065498;28;20056;-49
2022/02/25 07:48:59;;;;;;;2.53;1.60;;;;;;;;;;5069086;28;20029;-48
2022/02/25 07:51:27;;;;;;;5.30;1.42;;;;;;;;;;5064168;28;20086;-49
2022/02/25 07:53:54;;;;;;;6.32;2.45;;;;;;;;;;5070226;28;20114;-49
2022/02/25 07:56:20;;;;;;;3.55;1.88;;;;;;;;;;5069752;28;20056;-49
2022/02/25 07:58:46;;;;;;;8.23;1.77;;;;;;;;;;5063495;28;20407;-49
2022/02/25 08:01:13;;;;;;;7.38;1.80;;;;;;;;;;5066306;28;20032;-50
2022/02/25 08:03:39;;;;;;;6.38;1.55;;;;;;;;;;5065925;28;20051;-49
2022/02/25 08:06:05;;;;;;;2.70;1.70;;;;;;;;;;5072054;28;20510;-49
2022/02/25 08:08:31;;;;;;;6.95;1.48;;;;;;;;;;5059610;28;20032;-51
2022/02/25 08:10:57;;;;;;;2.85;1.13;;;;;;;;;;5071063;28;20036;-51
2022/02/25 08:13:23;;;;;;;5.38;1.60;;;;;;;;;;5069505;28;20484;-50
2022/02/25 08:15:49;;;;;;;5.80;2.17;;;;;;;;;;5064231;28;20039;-52
2022/02/25 08:18:15;;;;;;;4.00;1.30;;;;;;;;;;5067405;28;20611;-52
2022/02/25 08:20:41;;;;;;;2.92;1.30;;;;;;;;;;5064939;28;20067;-50
2022/02/25 08:23:08;;;;;;;3.63;1.63;;;;;;;;;;5065549;28;20029;-48
2022/02/25 08:25:36;;;;;;;5.82;2.33;;;;;;;;;;5064877;28;20032;-51
2022/02/25 08:28:03;;;;;;;3.83;1.65;;;;;;;;;;5055521;28;20029;-52
2022/02/25 08:30:29;;;;;;;9.65;1.83;;;;;;;;;;5064128;28;20044;-50
2022/02/25 08:33:00;;;;;;;5.15;1.35;;;;;;;;;;5056381;28;20033;-52
2022/02/25 08:35:26;;;;;;;3.75;1.40;;;;;;;;;;5065391;28;20024;-53
2022/02/25 08:37:52;;;;;;;4.50;1.55;;;;;;;;;;5066729;28;20524;-48
2022/02/25 08:40:18;;;;;;;2.42;1.40;;;;;;;;;;5059491;28;20031;-49
2022/02/25 08:42:44;;;;;;;4.95;1.08;;;;;;;;;;5061219;28;20032;-50
2022/02/25 08:45:11;;;;;;;2.42;1.08;;;;;;;;;;5069329;28;20040;-48
2022/02/25 08:47:37;;;;;;;4.35;1.67;;;;;;;;;;5066956;28;20031;-48
2022/02/25 08:50:04;;;;;;;4.55;1.35;;;;;;;;;;5056394;28;20020;-51
2022/02/25 08:52:30;;;;;;;6.43;1.52;;;;;;;;;;5065371;28;20033;-48
2022/02/25 08:54:56;;;;;;;3.72;2.00;;;;;;;;;;5071581;28;20044;-49
2022/02/25 08:57:22;;;;;;;2.78;1.10;;;;;;;;;;5063397;28;20549;-51
2022/02/25 08:59:48;;;;;;;3.42;1.30;;;;;;;;;;5067531;28;20017;-53
2022/02/25 09:02:14;;;;;;;5.25;1.13;;;;;;;;;;5058396;28;20477;-48
2022/02/25 09:04:42;;;;;;;5.63;1.17;;;;;;;;;;5065396;28;20091;-51
2022/02/25 09:07:08;;;;;;;6.22;1.70;;;;;;;;;;5064236;28;20052;-49
2022/02/25 09:09:34;;;;;;;4.43;1.30;;;;;;;;;;5072632;28;20056;-50
2022/02/25 09:12:00;;;;;;;6.45;1.58;;;;;;;;;;5074179;28;20109;-48
2022/02/25 09:14:28;;;;;;;6.40;1.30;;;;;;;;;;5067611;28;20040;-48
2022/02/25 09:16:54;;;;;;;28.83;2.22;;;;;;;;;;5067531;28;20032;-48
2022/02/25 09:19:20;;;;;;;5.93;1.40;;;;;;;;;;5056735;28;20025;-49
2022/02/25 09:21:46;;;;;;;6.18;1.42;;;;;;;;;;5070250;28;20036;-48
2022/02/25 09:24:12;;;;;;;5.90;1.23;;;;;;;;;;5073351;28;20468;-51
2022/02/25 09:26:38;;;;;;;3.55;1.25;;;;;;;;;;5066329;28;20025;-49
2022/02/25 09:29:05;;;;;;;7.65;1.10;;;;;;;;;;5072973;28;20422;-48
2022/02/25 09:31:31;;;;;;;4.80;1.17;;;;;;;;;;5068975;28;20086;-49
2022/02/25 09:33:57;;;;;;;5.63;1.42;;;;;;;;;;5075001;28;20038;-48
2022/02/25 09:36:23;;;;;;;3.70;1.00;;;;;;;;;;5068309;28;20029;-48
2022/02/25 09:38:49;;;;;;;7.97;1.17;;;;;;;;;;5073265;28;20166;-49
2022/02/25 09:41:16;;;;;;;10.35;2.08;;;;;;;;;;5062097;28;20042;-49
2022/02/25 09:43:43;;;;;;;3.15;0.80;;;;;;;;;;5075344;28;20028;-49
2022/02/25 09:46:09;;;;;;;9.52;2.05;;;;;;;;;;5069530;28;20077;-53
2022/02/25 09:48:35;;;;;;;7.65;1.20;;;;;;;;;;5066811;28;20036;-50
2022/02/25 09:51:01;;;;;;;5.53;1.45;;;;;;;;;;5072688;28;20032;-50
2022/02/25 09:53:28;;;;;;;5.40;1.38;;;;;;;;;;5067828;28;20472;-53
2022/02/25 09:55:54;;;;;;;5.70;1.63;;;;;;;;;;5070634;28;20037;-50
2022/02/25 09:58:20;;;;;;;5.13;1.30;;;;;;;;;;5067645;28;20044;-52
2022/02/25 10:00:46;;;;;;;5.80;1.13;;;;;;;;;;5073789;28;20099;-52
2022/02/25 10:03:14;;;;;;;7.18;1.10;;;;;;;;;;5071947;28;20036;-53
2022/02/25 10:05:41;;;;;;;7.78;1.40;;;;;;;;;;5066906;28;20025;-50
2022/02/25 10:08:15;;;;;;;4.90;1.00;;;;;;;;;;5070333;28;20029;-51
2022/02/25 10:10:45;;;;;;;4.07;1.35;;;;;;;;;;5070594;28;20415;-48
2022/02/25 10:13:12;;;;;;;5.93;1.10;;;;;;;;;;5072363;28;20029;-51
2022/02/25 10:15:40;;;;;;;7.25;1.40;;;;;;;;;;5060964;28;20023;-51
2022/02/25 10:18:07;;;;;;;4.75;1.20;;;;;;;;;;5067879;28;20373;-48
2022/02/25 10:20:34;;;;;;;7.35;1.40;;;;;;;;;;5060560;28;20021;-52
2022/02/25 10:23:00;;;;;;;2.55;1.23;;;;;;;;;;5064377;28;20028;-49
2022/02/25 10:25:32;;;;;;;12.00;1.40;;;;;;;;;;5073768;28;20033;-49
2022/02/25 10:27:58;;;;;;;4.15;1.00;;;;;;;;;;5062729;28;20044;-50
2022/02/25 10:30:25;;;;;;;5.05;1.10;;;;;;;;;;5067036;28;20029;-49
2022/02/25 10:32:53;;;;;;;4.53;1.50;;;;;;;;;;5060050;28;20070;-50
2022/02/25 10:35:19;;;;;;;3.28;1.15;;;;;;;;;;5070450;28;20032;-50
2022/02/25 10:38:03;;;;;;;4.55;1.20;;;;;;;;;;5071495;28;20032;-48
2022/02/25 10:40:37;;;;;;;5.28;1.38;;;;;;;;;;5058032;28;20029;-49
2022/02/25 10:43:08;;;;;;;4.13;1.40;;;;;;;;;;5060479;28;20033;-49
2022/02/25 10:45:36;;;;;;;4.30;1.60;;;;;;;;;;5060413;28;20041;-49
2022/02/25 10:48:04;;;;;;;2.55;1.10;;;;;;;;;;5062098;28;20462;-49
2022/02/25 10:50:30;;;;;;;3.65;1.33;;;;;;;;;;5063128;28;20484;-48
2022/02/25 10:52:57;;;;;;;8.82;1.67;;;;;;;;;;5062363;28;20064;-48
2022/02/25 10:55:25;;;;;;;4.10;1.20;;;;;;;;;;5054152;28;20648;-49
2022/02/25 10:57:52;;;;;;;2.15;1.10;;;;;;;;;;5059794;28;20491;-50
2022/02/25 11:00:18;;;;;;;3.22;1.27;;;;;;;;;;5065008;28;20027;-52
2022/02/25 11:02:49;;;;;;;8.35;1.40;;;;;;;;;;5061450;28;20119;-53
2022/02/25 11:05:19;;;;;;;8.55;1.50;;;;;;;;;;5066528;28;20107;-50
2022/02/25 11:07:49;;;;;;;4.63;1.23;;;;;;;;;;5066892;28;20060;-49
2022/02/25 11:10:16;;;;;;;4.40;1.15;;;;;;;;;;5072371;28;20074;-48
2022/02/25 11:12:43;;;;;;;6.75;0.88;;;;;;;;;;5065800;28;20112;-50
2022/02/25 11:15:10;;;;;;;3.63;1.25;;;;;;;;;;5062776;28;20023;-49
2022/02/25 11:17:38;;;;;;;2.63;1.00;;;;;;;;;;5072217;28;20123;-49
2022/02/25 11:20:06;;;;;;;4.32;1.27;;;;;;;;;;5073020;28;20021;-50
2022/02/25 11:22:38;;;;;;;4.88;1.42;;;;;;;;;;5067209;28;20506;-51
2022/02/25 11:25:05;;;;;;;6.95;1.30;;;;;;;;;;5059652;28;20033;-51
2022/02/25 11:27:31;;;;;;;2.92;1.00;;;;;;;;;;5063294;28;20043;-49
2022/02/25 11:30:06;;;;;;;6.25;1.20;;;;;;;;;;5070179;28;20032;-48
2022/02/25 11:32:35;;;;;;;4.47;1.20;;;;;;;;;;5062694;28;20111;-48
2022/02/25 11:35:11;;;;;;;5.07;1.67;;;;;;;;;;5067509;28;20075;-49
2022/02/25 11:37:41;;;;;;;6.65;1.52;;;;;;;;;;5061241;28;20028;-49
2022/02/25 11:40:08;;;;;;;4.93;1.30;;;;;;;;;;5063403;28;20031;-53
2022/02/25 11:42:34;;;;;;;3.60;1.35;;;;;;;;;;5057134;28;20039;-52
2022/02/25 11:45:19;;;;;;;5.50;1.13;;;;;;;;;;5068227;28;20116;-49
2022/02/25 11:47:56;;;;;;;5.70;1.23;;;;;;;;;;5072003;28;20032;-48
2022/02/25 11:50:39;;;;;;;5.43;1.85;;;;;;;;;;5071563;28;20085;-54
2022/02/25 11:53:30;;;;;;;5.20;1.08;;;;;;;;;;5104761;27;20955;-49
2022/02/25 11:56:16;;;;;;;3.70;1.00;;;;;;;;;;5101289;28;20055;-50
2022/02/25 11:58:44;;;;;;;4.45;1.08;;;;;;;;;;5109750;28;20460;-54
2022/02/25 12:01:14;;;;;;;3.22;1.00;;;;;;;;;;5103215;28;20042;-48
2022/02/25 12:04:11;;;;;;;4.95;1.30;;;;;;;;;;5109787;28;20047;-49
2022/02/25 12:06:55;;;;;;;2.30;1.48;;;;;;;;;;5090150;28;20064;-50
2022/02/25 12:09:38;;;;;;;2.55;1.05;;;;;;;;;;5094518;28;20031;-52
2022/02/25 12:12:23;;;;;;;3.07;1.20;;;;;;;;;;5107692;28;20405;-49
2022/02/25 12:15:07;;;;;;;1.98;1.20;;;;;;;;;;5099405;28;20269;-51
2022/02/25 12:17:36;;;;;;;1.15;0.85;;;;;;;;;;5106526;28;20020;-54
2022/02/25 12:20:05;;;;;;;2.83;0.90;;;;;;;;;;5099649;28;20039;-52
2022/02/25 12:22:46;;;;;;;6.53;1.23;;;;;;;;;;5103727;28;20024;-49
2022/02/25 12:25:13;;;;;;;4.80;0.90;;;;;;;;;;5098648;28;20028;-49
2022/02/25 12:27:39;;;;;;;5.70;1.10;;;;;;;;;;5091578;28;20032;-52
2022/02/25 12:30:24;;;;;;;5.15;0.88;;;;;;;;;;5100057;28;20036;-49
2022/02/25 12:32:52;;;;;;;1.65;0.60;;;;;;;;;;5094344;28;20028;-53
2022/02/25 12:35:38;;;;;;;4.53;1.08;;;;;;;;;;5092425;28;20073;-54
2022/02/25 12:38:04;;;;;;;1.58;0.90;;;;;;;;;;5108099;28;20080;-50
2022/02/25 12:40:30;;;;;;;4.95;1.58;;;;;;;;;;5102788;28;20057;-50
2022/02/25 12:42:56;;;;;;;11.65;2.15;;;;;;;;;;5096350;28;20035;-53
2022/02/25 12:45:28;;;;;;;2.30;1.02;;;;;;;;;;5096531;28;20403;-49
2022/02/25 12:47:53;;;;;;;2.25;0.93;;;;;;;;;;5101635;28;20021;-53
2022/02/25 12:50:19;;;;;;;4.30;1.63;;;;;;;;;;5095817;28;20463;-52
2022/02/25 12:52:45;;;;;;;2.35;1.35;;;;;;;;;;5095518;28;20182;-52
2022/02/25 12:55:15;;;;;;;7.88;1.05;;;;;;;;;;5098815;28;20031;-49
2022/02/25 12:57:41;;;;;;;3.13;1.15;;;;;;;;;;5107832;28;20036;-50
2022/02/25 13:00:08;;;;;;;1.08;0.93;;;;;;;;;;5105238;28;20026;-51
2022/02/25 13:02:34;;;;;;;4.20;0.95;;;;;;;;;;5095006;28;20035;-48
2022/02/25 13:05:00;;;;;;;5.18;0.90;;;;;;;;;;5080350;28;20427;-51
2022/02/25 13:07:27;;;;;;;6.13;1.20;;;;;;;;;;5085622;28;20447;-50
2022/02/25 13:09:53;;;;;;;3.20;1.15;;;;;;;;;;5082694;28;20028;-51
2022/02/25 13:12:21;;;;;;;5.20;1.63;;;;;;;;;;5084556;28;20040;-49
2022/02/25 13:14:48;;;;;;;4.60;1.45;;;;;;;;;;5082452;28;20056;-50
2022/02/25 13:17:19;;;;;;;7.25;2.13;;;;;;;;;;5087295;28;20024;-53
2022/02/25 13:19:53;;;;;;;4.30;1.15;;;;;;;;;;5088210;28;20032;-48
2022/02/25 13:22:20;;;;;;;3.00;0.80;;;;;;;;;;5080636;28;20040;-48
2022/02/25 13:24:55;;;;;;;7.93;1.20;;;;;;;;;;5090770;28;20065;-48
2022/02/25 13:27:33;;;;;;;4.40;1.10;;;;;;;;;;5087252;28;20028;-48
2022/02/25 13:29:59;;;;;;;7.25;1.08;;;;;;;;;;5081742;28;20637;-50
2022/02/25 13:32:27;;;;;;;3.60;1.58;;;;;;;;;;5078514;28;20090;-49
2022/02/25 13:34:53;;;;;;;4.68;1.20;;;;;;;;;;5079946;28;20028;-50
2022/02/25 13:37:19;;;;;;;2.63;1.20;;;;;;;;;;5091921;28;20493;-48
2022/02/25 13:39:45;;;;;;;4.97;1.40;;;;;;;;;;5084551;28;20032;-48
2022/02/25 13:42:12;;;;;;;3.55;1.02;;;;;;;;;;5082617;28;20024;-49
2022/02/25 13:44:38;;;;;;;10.85;1.60;;;;;;;;;;5082493;28;20438;-48
2022/02/25 13:52:35;;;;;;;6.00;1.70;;;;;;;;;;5080995;28;20106;-50
2022/02/25 13:55:11;;;;;;;9.88;2.33;;;;;;;;;;5093293;28;20058;-48
2022/02/25 13:57:39;;;;;;;8.85;1.73;;;;;;;;;;5094007;28;20031;-49
2022/02/25 14:00:08;;;;;;;7.40;1.73;;;;;;;;;;5087544;28;20040;-48
2022/02/25 14:02:35;;;;;;;1.70;1.42;;;;;;;;;;5087888;28;20050;-51
2022/02/25 14:05:09;;;;;;;5.22;2.22;;;;;;;;;;5086994;28;20035;-50
2022/02/25 14:07:39;;;;;;;6.82;1.92;;;;;;;;;;5090027;28;20430;-51
2022/02/25 14:10:23;;;;;;;10.18;2.08;;;;;;;;;;5088509;28;20040;-48
2022/02/25 14:12:50;;;;;;;6.13;2.63;;;;;;;;;;5092229;28;20016;-49
2022/02/25 14:15:16;;;;;;;4.45;1.70;;;;;;;;;;5080464;28;20108;-49
2022/02/25 14:17:43;;;;;;;5.68;1.92;;;;;;;;;;5085154;28;20074;-48
2022/02/25 14:20:17;;;;;;;9.25;2.22;;;;;;;;;;5084716;28;20024;-48
2022/02/25 14:22:44;;;;;;;3.92;1.50;;;;;;;;;;5078626;28;20358;-49
2022/02/25 14:25:16;;;;;;;7.18;1.60;;;;;;;;;;5087157;28;20360;-49
2022/02/25 14:28:01;;;;;;;2.83;1.45;;;;;;;;;;5089197;28;20563;-49
2022/02/25 14:30:32;;;;;;;6.32;1.58;;;;;;;;;;5080323;28;20425;-48
2022/02/25 14:33:01;;;;;;;6.38;1.30;;;;;;;;;;5079180;28;20024;-50
2022/02/25 14:35:28;;;;;;;6.03;1.20;;;;;;;;;;5082839;28;20027;-50
2022/02/25 14:37:54;;;;;;;4.75;1.92;;;;;;;;;;5085428;28;20020;-51
2022/02/25 14:40:22;;;;;;;5.90;1.30;;;;;;;;;;5081856;28;20059;-48
2022/02/25 14:42:48;;;;;;;7.30;0.90;;;;;;;;;;5073095;28;20042;-49
2022/02/25 14:45:14;;;;;;;7.35;1.42;;;;;;;;;;5074442;28;20039;-51
2022/02/25 14:47:40;;;;;;;7.43;1.13;;;;;;;;;;5080602;28;20573;-52
2022/02/25 14:50:06;;;;;;;6.05;0.98;;;;;;;;;;5093258;28;20032;-49
2022/02/25 14:52:32;;;;;;;3.25;1.10;;;;;;;;;;5085418;28;20580;-49
2022/02/25 14:54:59;;;;;;;7.28;1.30;;;;;;;;;;5092744;28;20024;-49
2022/02/25 14:57:25;;;;;;;3.20;1.27;;;;;;;;;;5089159;28;20066;-48
2022/02/25 14:59:51;;;;;;;5.13;1.13;;;;;;;;;;5086461;28;20491;-50